Time;durP1;ratioP1;P1;durP2;ratioP2;P2;SDS_P1;SDS_P2;PMS_P1;PMS_P2;Temp;Humidity;BMP_temperature;BMP_pressure;BME280_temperature;BME280_humidity;BME280_pressure;Samples;Min_cycle;Max_cycle;Signal;HPM_P1;HPM_P2
2021/01/08 00:00:59;;;;;;;19.30;11.32;;;-0.80;98.00;;;;;;5110647;28;20122;-69
2021/01/08 00:03:28;;;;;;;16.95;10.82;;;-0.80;98.00;;;;;;5111788;28;20043;-68
2021/01/08 00:05:53;;;;;;;18.83;10.40;;;-0.80;98.00;;;;;;5112135;28;20091;-69
2021/01/08 00:08:19;;;;;;;17.17;11.25;;;-0.90;98.00;;;;;;5112365;28;20035;-69
2021/01/08 00:10:48;;;;;;;19.77;12.15;;;-0.80;98.00;;;;;;5111297;28;20123;-69
2021/01/08 00:13:14;;;;;;;17.10;10.77;;;-0.90;98.00;;;;;;5109164;28;20331;-68
2021/01/08 00:15:40;;;;;;;18.67;10.82;;;-0.90;98.00;;;;;;5111917;28;20020;-68
2021/01/08 00:18:05;;;;;;;21.63;10.43;;;-0.90;98.00;;;;;;5111793;28;20629;-68
2021/01/08 00:20:31;;;;;;;17.38;10.50;;;-0.90;98.00;;;;;;5110668;28;20072;-70
2021/01/08 00:22:57;;;;;;;18.92;10.23;;;-0.90;98.00;;;;;;5112045;28;20027;-69
2021/01/08 00:25:27;;;;;;;17.10;9.65;;;-0.90;98.00;;;;;;5110324;28;20038;-69
2021/01/08 00:27:53;;;;;;;20.00;9.85;;;-0.90;98.00;;;;;;5111079;28;20438;-69
2021/01/08 00:30:19;;;;;;;14.23;10.23;;;-0.90;98.00;;;;;;5111005;28;20016;-70
2021/01/08 00:32:45;;;;;;;14.35;8.73;;;-0.90;98.00;;;;;;5109954;28;20027;-69
2021/01/08 00:35:13;;;;;;;14.82;9.05;;;-0.90;98.00;;;;;;5112010;28;20031;-69
2021/01/08 00:37:39;;;;;;;13.93;8.95;;;-0.80;98.00;;;;;;5110469;28;20034;-69
2021/01/08 00:40:05;;;;;;;14.48;8.95;;;-0.80;98.00;;;;;;5110137;28;20436;-69
2021/01/08 00:42:33;;;;;;;12.00;8.43;;;-0.80;98.00;;;;;;5110187;28;20352;-68
2021/01/08 00:44:58;;;;;;;12.27;8.32;;;-0.80;98.00;;;;;;5111327;28;20036;-68
2021/01/08 00:47:27;;;;;;;11.30;7.38;;;-0.80;98.00;;;;;;5115587;27;20062;-69
2021/01/08 00:49:52;;;;;;;14.25;8.35;;;-0.80;98.00;;;;;;5131548;27;20027;-69
2021/01/08 00:52:18;;;;;;;13.88;8.30;;;-0.90;98.00;;;;;;5114178;27;20024;-69
2021/01/08 00:54:47;;;;;;;13.30;8.38;;;-0.90;98.00;;;;;;5132231;27;20158;-68
2021/01/08 00:57:13;;;;;;;12.68;8.13;;;-0.90;98.00;;;;;;5130367;27;20030;-69
2021/01/08 00:59:39;;;;;;;12.98;8.10;;;-0.80;98.00;;;;;;5130909;27;20073;-69
2021/01/08 01:02:13;;;;;;;14.38;9.27;;;-0.80;98.00;;;;;;5134725;27;20102;-69
2021/01/08 01:04:39;;;;;;;12.15;7.95;;;-0.80;98.00;;;;;;5135057;27;20063;-68
2021/01/08 01:07:07;;;;;;;13.80;9.18;;;-0.80;98.00;;;;;;5132256;27;20046;-70
2021/01/08 01:09:33;;;;;;;16.52;8.77;;;-0.90;98.00;;;;;;5131717;27;20396;-69
2021/01/08 01:12:06;;;;;;;14.48;8.10;;;-0.90;98.00;;;;;;5111461;27;20027;-70
2021/01/08 01:14:32;;;;;;;13.48;9.18;;;-0.90;98.00;;;;;;5131354;27;20098;-69
2021/01/08 01:17:03;;;;;;;17.05;9.82;;;-0.90;98.00;;;;;;5131746;27;20322;-69
2021/01/08 01:19:31;;;;;;;14.75;9.38;;;-0.90;98.00;;;;;;5130657;27;20031;-69
2021/01/08 01:21:56;;;;;;;18.42;10.63;;;-0.90;98.00;;;;;;5132013;27;20318;-68
2021/01/08 01:24:25;;;;;;;13.55;8.48;;;-0.90;98.00;;;;;;5131089;27;20102;-69
2021/01/08 01:27:03;;;;;;;14.27;9.02;;;-0.90;98.00;;;;;;5129782;27;20076;-67
2021/01/08 01:29:28;;;;;;;13.85;9.23;;;-0.90;98.00;;;;;;5130137;27;20027;-68
2021/01/08 01:31:54;;;;;;;16.40;9.70;;;-0.90;98.00;;;;;;5129721;27;20034;-70
2021/01/08 01:34:20;;;;;;;13.23;9.15;;;-0.90;98.00;;;;;;5131371;27;20034;-69
2021/01/08 01:36:51;;;;;;;15.77;10.10;;;-1.00;98.00;;;;;;5130429;27;21542;-70
2021/01/08 01:39:23;;;;;;;13.68;9.68;;;-1.00;98.00;;;;;;5113382;28;21321;-68
2021/01/08 01:41:54;;;;;;;14.88;9.52;;;-1.00;98.00;;;;;;5129508;27;20030;-69
2021/01/08 01:44:20;;;;;;;14.52;9.88;;;-1.00;98.00;;;;;;5130779;27;20407;-68
2021/01/08 01:46:46;;;;;;;14.88;9.48;;;-1.00;98.00;;;;;;5130507;27;20084;-69
2021/01/08 01:49:14;;;;;;;16.27;10.25;;;-1.00;98.00;;;;;;5130288;28;20054;-68
2021/01/08 01:51:40;;;;;;;17.52;10.65;;;-1.00;98.00;;;;;;5111442;28;20063;-67
2021/01/08 01:54:09;;;;;;;18.58;10.25;;;-1.00;98.00;;;;;;5131037;28;20047;-68
2021/01/08 01:56:34;;;;;;;14.32;9.10;;;-1.10;98.00;;;;;;5128831;28;20027;-68
2021/01/08 01:59:02;;;;;;;14.40;9.70;;;-1.00;98.00;;;;;;5113160;28;20029;-70
2021/01/08 02:01:28;;;;;;;16.58;9.75;;;-1.00;98.00;;;;;;5125582;28;20358;-69
2021/01/08 02:03:56;;;;;;;15.35;9.73;;;-1.00;98.00;;;;;;5121790;28;20050;-70
2021/01/08 02:06:32;;;;;;;15.27;9.80;;;-1.10;98.00;;;;;;5100490;28;20028;-70
2021/01/08 02:09:03;;;;;;;14.60;9.88;;;-1.10;98.00;;;;;;5120343;28;20054;-69
2021/01/08 02:11:34;;;;;;;17.08;11.02;;;-1.20;98.00;;;;;;5116779;28;20457;-70
2021/01/08 02:14:05;;;;;;;17.33;9.63;;;-1.20;98.00;;;;;;5116500;28;20023;-69
2021/01/08 02:16:33;;;;;;;15.75;9.48;;;-1.30;98.00;;;;;;5100788;28;20039;-70
2021/01/08 02:18:59;;;;;;;13.32;8.63;;;-1.30;98.00;;;;;;5102541;28;20032;-70
2021/01/08 02:21:33;;;;;;;14.40;10.00;;;-1.40;98.00;;;;;;5100188;28;20023;-70
2021/01/08 02:24:18;;;;;;;16.38;9.52;;;-1.40;98.00;;;;;;5122019;28;20023;-68
2021/01/08 02:26:55;;;;;;;16.10;9.90;;;-1.40;98.00;;;;;;5120871;28;20320;-69
2021/01/08 02:29:21;;;;;;;17.55;9.75;;;-1.40;98.00;;;;;;5120831;28;20023;-70
2021/01/08 02:31:49;;;;;;;15.48;10.13;;;-1.30;98.00;;;;;;5099891;28;20031;-70
2021/01/08 02:34:15;;;;;;;16.98;9.82;;;-1.30;98.00;;;;;;5120454;28;20130;-70
2021/01/08 02:36:45;;;;;;;16.58;9.82;;;-1.30;98.00;;;;;;5120399;28;20023;-68
2021/01/08 02:39:16;;;;;;;14.10;9.30;;;-1.30;98.00;;;;;;5117135;28;20046;-69
2021/01/08 02:41:44;;;;;;;17.95;9.35;;;-1.30;98.00;;;;;;5118460;28;20054;-68
2021/01/08 02:44:12;;;;;;;15.57;9.43;;;-1.30;98.00;;;;;;5121871;28;20023;-70
2021/01/08 02:46:39;;;;;;;13.38;9.07;;;-1.30;98.00;;;;;;5115565;28;20081;-69
2021/01/08 02:49:04;;;;;;;11.60;8.48;;;-1.30;98.00;;;;;;5117088;28;20058;-69
2021/01/08 02:51:33;;;;;;;12.63;8.93;;;-1.30;98.00;;;;;;5123590;28;20435;-68
2021/01/08 02:53:58;;;;;;;16.85;9.02;;;-1.30;98.00;;;;;;5125162;28;20417;-70
2021/01/08 02:56:32;;;;;;;17.08;9.57;;;-1.30;98.00;;;;;;5125875;27;20088;-70
2021/01/08 02:59:01;;;;;;;12.90;8.60;;;-1.30;98.00;;;;;;5103685;27;20039;-68
2021/01/08 03:01:28;;;;;;;12.52;8.05;;;-1.30;98.00;;;;;;5109105;27;20122;-68
2021/01/08 03:03:58;;;;;;;15.93;10.13;;;-1.30;98.00;;;;;;5124397;27;20030;-69
2021/01/08 03:06:28;;;;;;;14.27;9.35;;;-1.40;98.00;;;;;;5128215;27;20098;-69
2021/01/08 03:08:57;;;;;;;13.05;8.38;;;-1.40;98.00;;;;;;5124160;27;20408;-69
2021/01/08 03:11:22;;;;;;;14.32;9.02;;;-1.40;98.00;;;;;;5121034;27;20031;-70
2021/01/08 03:13:51;;;;;;;21.13;8.95;;;-1.50;98.00;;;;;;5120863;27;20050;-69
2021/01/08 03:16:17;;;;;;;13.13;8.27;;;-1.40;98.00;;;;;;5124402;27;20034;-70
2021/01/08 03:18:46;;;;;;;15.02;8.73;;;-1.40;98.00;;;;;;5120514;27;20111;-69
2021/01/08 03:21:11;;;;;;;12.82;8.40;;;-1.40;98.00;;;;;;5122308;27;20039;-70
2021/01/08 03:23:37;;;;;;;14.60;8.55;;;-1.30;98.00;;;;;;5124279;27;20042;-68
2021/01/08 03:26:03;;;;;;;13.20;8.38;;;-1.30;98.00;;;;;;5120988;27;20043;-70
2021/01/08 03:28:28;;;;;;;11.55;7.95;;;-1.30;98.00;;;;;;5122664;27;20035;-70
2021/01/08 03:30:54;;;;;;;12.57;8.50;;;-1.30;98.00;;;;;;5122071;27;20028;-71
2021/01/08 03:33:20;;;;;;;15.02;9.35;;;-1.40;98.00;;;;;;5121554;27;20077;-71
2021/01/08 03:35:45;;;;;;;15.93;8.95;;;-1.40;98.00;;;;;;5120865;27;20023;-69
2021/01/08 03:38:11;;;;;;;13.02;8.63;;;-1.40;98.00;;;;;;5119843;27;20445;-70
2021/01/08 03:40:40;;;;;;;13.90;9.07;;;-1.40;98.00;;;;;;5119178;27;20089;-71
2021/01/08 03:43:10;;;;;;;12.07;8.00;;;-1.40;98.00;;;;;;5122676;27;20035;-71
2021/01/08 03:45:40;;;;;;;10.57;7.18;;;-1.40;98.00;;;;;;5120777;27;20058;-70
2021/01/08 03:48:06;;;;;;;12.93;6.20;;;-1.30;98.00;;;;;;5122733;27;20043;-71
2021/01/08 03:50:32;;;;;;;9.40;6.55;;;-1.30;98.00;;;;;;5120104;27;20073;-70
2021/01/08 03:52:57;;;;;;;11.35;7.18;;;-1.20;98.00;;;;;;5126153;27;20045;-70
2021/01/08 03:55:23;;;;;;;10.63;6.80;;;-1.30;98.00;;;;;;5108028;27;20034;-71
2021/01/08 03:57:49;;;;;;;10.80;7.20;;;-1.30;98.00;;;;;;5117961;27;20058;-70
2021/01/08 04:00:15;;;;;;;10.73;7.07;;;-1.20;98.00;;;;;;5118136;27;20080;-70
2021/01/08 04:02:43;;;;;;;11.98;7.25;;;-1.10;98.00;;;;;;5125220;27;20031;-69
2021/01/08 04:05:09;;;;;;;11.40;6.38;;;-1.10;98.00;;;;;;5103791;27;20043;-70
2021/01/08 04:07:37;;;;;;;12.40;6.35;;;-1.10;98.00;;;;;;5125769;27;20399;-71
2021/01/08 04:10:03;;;;;;;10.05;6.25;;;-1.20;98.00;;;;;;5122301;27;20082;-71
2021/01/08 04:12:29;;;;;;;11.07;6.28;;;-1.10;98.00;;;;;;5121367;27;20365;-70
2021/01/08 04:14:57;;;;;;;12.20;6.50;;;-1.20;98.00;;;;;;5123785;27;20035;-70
2021/01/08 04:17:23;;;;;;;9.43;6.05;;;-1.20;98.00;;;;;;5119785;27;20031;-71
2021/01/08 04:19:48;;;;;;;10.30;6.63;;;-1.20;98.00;;;;;;5119401;27;20323;-70
2021/01/08 04:22:14;;;;;;;8.75;5.57;;;-1.20;98.00;;;;;;5119656;27;20101;-70
2021/01/08 04:24:40;;;;;;;11.18;6.85;;;-1.20;98.00;;;;;;5119106;27;20031;-69
2021/01/08 04:27:14;;;;;;;10.23;6.32;;;-1.20;98.00;;;;;;5118895;27;20587;-71
2021/01/08 04:29:40;;;;;;;10.02;6.38;;;-1.20;98.00;;;;;;5119505;27;20032;-69
2021/01/08 04:32:06;;;;;;;12.27;6.80;;;-1.30;98.00;;;;;;5121591;27;20395;-69
2021/01/08 04:34:31;;;;;;;9.80;6.40;;;-1.30;98.00;;;;;;5103554;27;20640;-70
2021/01/08 04:36:57;;;;;;;11.55;6.82;;;-1.30;98.00;;;;;;5107776;27;20037;-69
2021/01/08 04:39:23;;;;;;;10.20;6.07;;;-1.30;98.00;;;;;;5119386;27;20119;-68
2021/01/08 04:41:48;;;;;;;10.95;5.93;;;-1.30;98.00;;;;;;5124396;27;20097;-68
2021/01/08 04:44:15;;;;;;;10.00;6.47;;;-1.30;98.00;;;;;;5123803;27;20033;-69
2021/01/08 04:46:42;;;;;;;10.38;6.55;;;-1.30;98.00;;;;;;5121702;27;20150;-68
2021/01/08 04:49:10;;;;;;;10.35;6.60;;;-1.30;98.00;;;;;;5124336;27;20142;-68
2021/01/08 04:51:37;;;;;;;10.15;6.82;;;-1.30;98.00;;;;;;5099466;27;20023;-69
2021/01/08 04:54:04;;;;;;;10.63;6.97;;;-1.30;98.00;;;;;;5122667;27;20102;-70
2021/01/08 04:56:53;;;;;;;13.73;7.30;;;-1.30;98.00;;;;;;5115835;27;20046;-70
2021/01/08 04:59:22;;;;;;;13.35;7.35;;;-1.30;98.00;;;;;;5121076;27;20434;-70
2021/01/08 05:01:48;;;;;;;12.25;7.70;;;-1.30;98.00;;;;;;5120410;27;20026;-70
2021/01/08 05:04:16;;;;;;;12.45;7.80;;;-1.30;98.00;;;;;;5101870;27;20028;-69
2021/01/08 05:06:42;;;;;;;15.82;7.45;;;-1.30;98.00;;;;;;5122125;27;20077;-68
2021/01/08 05:09:08;;;;;;;12.45;7.18;;;-1.30;98.00;;;;;;5124381;27;20083;-70
2021/01/08 05:11:35;;;;;;;10.55;6.93;;;-1.30;98.00;;;;;;5116493;27;20022;-69
2021/01/08 05:14:08;;;;;;;8.48;6.22;;;-1.30;98.00;;;;;;5100992;27;20309;-69
2021/01/08 05:16:37;;;;;;;10.93;7.15;;;-1.30;98.00;;;;;;5116555;27;20027;-70
2021/01/08 05:19:05;;;;;;;11.27;6.72;;;-1.30;98.00;;;;;;5120452;27;20115;-69
2021/01/08 05:21:32;;;;;;;14.80;7.63;;;-1.30;98.00;;;;;;5118514;27;20360;-70
2021/01/08 05:23:59;;;;;;;10.27;6.95;;;-1.30;98.00;;;;;;5119336;27;20037;-69
2021/01/08 05:26:25;;;;;;;12.65;6.70;;;-1.30;98.00;;;;;;5115959;27;20054;-70
2021/01/08 05:28:57;;;;;;;10.98;7.25;;;-1.30;98.00;;;;;;5120723;27;20381;-70
2021/01/08 05:31:26;;;;;;;11.90;7.78;;;-1.30;98.00;;;;;;5123253;27;20080;-70
2021/01/08 05:33:53;;;;;;;9.40;6.72;;;-1.30;98.00;;;;;;5121627;27;20031;-69
2021/01/08 05:36:19;;;;;;;10.82;7.65;;;-1.30;98.00;;;;;;5120427;27;20035;-69
2021/01/08 05:38:53;;;;;;;11.88;7.97;;;-1.30;98.00;;;;;;5118856;27;20028;-68
2021/01/08 05:41:22;;;;;;;10.90;7.28;;;-1.20;98.00;;;;;;5118441;27;20023;-67
2021/01/08 05:43:48;;;;;;;13.85;8.98;;;-1.20;98.00;;;;;;5102905;27;20035;-70
2021/01/08 05:46:19;;;;;;;14.00;8.82;;;-1.30;98.00;;;;;;5118479;27;20031;-69
2021/01/08 05:48:47;;;;;;;12.30;7.88;;;-1.30;98.00;;;;;;5117040;27;20096;-70
2021/01/08 05:51:15;;;;;;;14.40;8.18;;;-1.30;98.00;;;;;;5115945;28;20046;-70
2021/01/08 05:54:02;;;;;;;14.65;9.15;;;-1.30;98.00;;;;;;5105353;28;20034;-69
2021/01/08 05:56:33;;;;;;;12.80;8.60;;;-1.20;98.00;;;;;;5119277;28;20040;-70
2021/01/08 05:59:04;;;;;;;11.60;8.05;;;-1.20;98.00;;;;;;5117641;28;20019;-69
2021/01/08 06:01:31;;;;;;;17.23;7.93;;;-1.20;98.00;;;;;;5120069;28;20096;-69
2021/01/08 06:04:01;;;;;;;10.23;6.35;;;-1.20;98.00;;;;;;5120853;28;20443;-69
2021/01/08 06:06:39;;;;;;;12.57;7.38;;;-1.10;98.00;;;;;;5118631;28;20039;-69
2021/01/08 06:09:05;;;;;;;13.70;7.72;;;-1.10;98.00;;;;;;5117927;28;20122;-68
2021/01/08 06:11:31;;;;;;;11.75;7.30;;;-1.10;98.00;;;;;;5119211;28;20027;-69
2021/01/08 06:14:10;;;;;;;12.05;8.05;;;-1.00;98.00;;;;;;5121390;28;20046;-68
2021/01/08 06:16:38;;;;;;;12.02;7.65;;;-1.10;98.00;;;;;;5100595;28;20031;-67
2021/01/08 06:19:05;;;;;;;15.32;7.75;;;-1.10;98.00;;;;;;5102604;28;20319;-67
2021/01/08 06:21:35;;;;;;;10.60;7.03;;;-1.10;98.00;;;;;;5116731;28;20024;-70
2021/01/08 06:24:01;;;;;;;9.93;6.70;;;-1.10;98.00;;;;;;5131331;28;20152;-68
2021/01/08 06:26:29;;;;;;;11.82;6.32;;;-1.00;98.00;;;;;;5116916;28;20106;-69
2021/01/08 06:29:02;;;;;;;9.43;6.38;;;-1.00;98.00;;;;;;5103319;28;20028;-68
2021/01/08 06:31:52;;;;;;;8.37;5.10;;;-1.00;98.00;;;;;;5129648;27;20020;-70
2021/01/08 06:34:30;;;;;;;10.05;6.85;;;-1.00;98.00;;;;;;5125916;27;20026;-70
2021/01/08 06:37:08;;;;;;;13.32;6.40;;;-1.00;98.00;;;;;;5110900;27;20019;-69
2021/01/08 06:39:45;;;;;;;11.43;6.32;;;-1.10;98.00;;;;;;5135392;27;20031;-69
2021/01/08 06:42:31;;;;;;;10.02;6.25;;;-1.10;98.00;;;;;;5128879;27;20039;-70
2021/01/08 06:44:59;;;;;;;10.85;6.40;;;-1.10;98.00;;;;;;5104017;28;20031;-68
2021/01/08 06:47:28;;;;;;;9.63;6.18;;;-1.10;98.00;;;;;;5104495;27;20326;-70
2021/01/08 06:49:57;;;;;;;10.90;6.43;;;-1.00;98.00;;;;;;5132777;27;20053;-68
2021/01/08 06:52:23;;;;;;;10.02;6.20;;;-1.00;98.00;;;;;;5101410;28;20031;-69
2021/01/08 06:54:56;;;;;;;9.70;5.78;;;-1.10;98.00;;;;;;5127449;27;20044;-70
2021/01/08 06:57:33;;;;;;;9.25;6.28;;;-1.10;98.00;;;;;;5132115;27;20041;-69
2021/01/08 07:00:08;;;;;;;16.02;7.05;;;-1.10;98.00;;;;;;5129772;27;20049;-70
2021/01/08 07:02:37;;;;;;;8.07;5.57;;;-1.10;98.00;;;;;;5125918;27;20493;-68
2021/01/08 07:05:06;;;;;;;8.45;5.82;;;-1.10;98.00;;;;;;5120989;27;20034;-70
2021/01/08 07:07:33;;;;;;;11.07;6.90;;;-1.10;98.00;;;;;;5126172;27;20026;-69
2021/01/08 07:10:02;;;;;;;9.02;5.63;;;-1.10;98.00;;;;;;5122345;27;20015;-69
2021/01/08 07:12:49;;;;;;;8.07;5.45;;;-1.10;98.00;;;;;;5125152;27;20315;-68
2021/01/08 07:15:15;;;;;;;8.32;5.70;;;-1.10;98.00;;;;;;5126667;27;20027;-69
2021/01/08 07:17:50;;;;;;;9.30;6.15;;;-1.00;98.00;;;;;;5134517;27;20051;-69
2021/01/08 07:20:16;;;;;;;9.40;5.95;;;-1.00;98.00;;;;;;5128255;27;20023;-70
2021/01/08 07:22:52;;;;;;;10.23;6.53;;;-1.00;98.00;;;;;;5123427;27;20027;-67
2021/01/08 07:25:20;;;;;;;11.40;6.82;;;-1.10;98.00;;;;;;5120076;27;20059;-68
2021/01/08 07:27:48;;;;;;;10.80;6.53;;;-1.10;98.00;;;;;;5132599;27;20053;-68
2021/01/08 07:30:14;;;;;;;9.32;5.97;;;-1.10;98.00;;;;;;5129039;27;20058;-68
2021/01/08 07:32:52;;;;;;;8.52;5.60;;;-1.10;98.00;;;;;;5130667;27;20024;-67
2021/01/08 07:35:30;;;;;;;6.78;4.60;;;-1.00;98.00;;;;;;5132098;27;20023;-68
2021/01/08 07:38:15;;;;;;;8.80;5.75;;;-1.00;98.00;;;;;;5110200;27;20424;-69
2021/01/08 07:41:01;;;;;;;9.02;5.38;;;-0.90;98.00;;;;;;5121219;27;20023;-67
2021/01/08 07:43:34;;;;;;;9.48;5.45;;;-0.90;98.00;;;;;;5130314;27;20062;-68
2021/01/08 07:46:00;;;;;;;14.75;6.35;;;-0.90;98.00;;;;;;5130306;27;20114;-68
2021/01/08 07:48:39;;;;;;;9.45;5.68;;;-0.90;98.00;;;;;;5111377;27;20101;-70
2021/01/08 07:51:18;;;;;;;8.70;5.07;;;-0.90;98.00;;;;;;5105545;28;20069;-70
2021/01/08 07:53:53;;;;;;;7.65;4.97;;;-0.90;98.00;;;;;;5114819;28;20023;-70
2021/01/08 07:56:31;;;;;;;7.15;4.72;;;-0.90;98.00;;;;;;5100687;28;20024;-69
2021/01/08 07:59:05;;;;;;;7.13;4.60;;;-0.80;98.00;;;;;;5107409;28;20027;-69
2021/01/08 08:01:34;;;;;;;11.70;6.97;;;-0.80;98.00;;;;;;5102428;28;20114;-69
2021/01/08 08:04:08;;;;;;;10.63;7.03;;;-0.80;98.00;;;;;;5100539;28;20061;-70
2021/01/08 08:06:45;;;;;;;7.32;5.28;;;-0.80;98.00;;;;;;5098559;28;20028;-70
2021/01/08 08:09:16;;;;;;;8.88;5.53;;;-0.80;98.00;;;;;;5097291;28;20110;-69
2021/01/08 08:11:46;;;;;;;8.95;5.55;;;-0.80;98.00;;;;;;5096778;28;20020;-68
2021/01/08 08:14:17;;;;;;;9.90;6.38;;;-0.80;98.00;;;;;;5097465;27;20361;-69
2021/01/08 08:16:44;;;;;;;10.95;5.38;;;-0.70;98.00;;;;;;5094560;28;20111;-69
2021/01/08 08:19:11;;;;;;;8.93;6.00;;;-0.70;98.00;;;;;;5098094;28;20050;-69
2021/01/08 08:21:38;;;;;;;8.65;5.60;;;-0.70;98.00;;;;;;5107979;28;20032;-68
2021/01/08 08:24:05;;;;;;;7.75;5.28;;;-0.70;98.00;;;;;;5096684;28;20027;-69
2021/01/08 08:26:35;;;;;;;9.82;6.20;;;-0.60;98.00;;;;;;5107724;28;20031;-70
2021/01/08 08:29:11;;;;;;;8.55;5.50;;;-0.60;98.00;;;;;;5112583;28;20577;-70
2021/01/08 08:31:39;;;;;;;8.18;5.70;;;-0.70;98.00;;;;;;5099270;28;20041;-70
2021/01/08 08:34:08;;;;;;;10.02;6.13;;;-0.70;98.00;;;;;;5104418;28;20400;-69
2021/01/08 08:36:37;;;;;;;11.23;6.80;;;-0.50;98.00;;;;;;5104340;28;20022;-69
2021/01/08 08:39:13;;;;;;;9.88;6.10;;;-0.50;98.00;;;;;;5106368;28;20042;-69
2021/01/08 08:41:42;;;;;;;9.70;6.05;;;-0.40;98.00;;;;;;5104937;28;20081;-69
2021/01/08 08:44:10;;;;;;;10.30;5.78;;;-0.30;98.00;;;;;;5099305;28;20054;-69
2021/01/08 08:46:55;;;;;;;12.80;5.93;;;-0.30;97.60;;;;;;5106830;28;20047;-67
2021/01/08 08:49:25;;;;;;;12.15;5.70;;;-0.30;97.90;;;;;;5124254;27;20332;-68
2021/01/08 08:51:52;;;;;;;10.02;6.15;;;-0.30;97.90;;;;;;5130134;27;20039;-69
2021/01/08 08:54:19;;;;;;;11.95;7.47;;;-0.40;98.00;;;;;;5120642;27;20019;-68
2021/01/08 08:56:55;;;;;;;14.10;8.48;;;-0.30;98.00;;;;;;5099968;28;20023;-68
2021/01/08 08:59:39;;;;;;;10.23;7.35;;;-0.30;98.00;;;;;;5123133;27;20019;-69
2021/01/08 09:02:06;;;;;;;8.68;5.45;;;-0.30;97.60;;;;;;5103673;28;20420;-68
2021/01/08 09:04:32;;;;;;;8.40;5.60;;;-0.20;98.00;;;;;;5121055;27;20031;-69
2021/01/08 09:07:03;;;;;;;11.00;5.68;;;-0.30;97.60;;;;;;5124384;27;20316;-69
2021/01/08 09:09:33;;;;;;;8.82;5.70;;;-0.30;97.80;;;;;;5117829;27;20032;-68
2021/01/08 09:12:42;;;;;;;11.25;6.03;;;-0.30;97.90;;;;;;5132070;27;20088;-69
2021/01/08 09:15:22;;;;;;;7.28;4.90;;;-0.20;97.90;;;;;;5093822;27;20035;-67
2021/01/08 09:18:01;;;;;;;9.73;5.57;;;-0.20;97.60;;;;;;5118566;27;20327;-68
2021/01/08 09:20:28;;;;;;;10.63;6.05;;;-0.10;97.70;;;;;;5123794;27;20043;-69
2021/01/08 09:22:55;;;;;;;7.95;5.30;;;-0.10;97.40;;;;;;5121950;27;20371;-68
2021/01/08 09:25:27;;;;;;;8.68;5.15;;;-0.20;97.30;;;;;;5096824;27;20028;-67
2021/01/08 09:27:53;;;;;;;8.18;5.75;;;-0.30;97.80;;;;;;5100163;28;20419;-68
2021/01/08 09:30:19;;;;;;;9.25;5.95;;;-0.20;98.00;;;;;;5108741;28;20041;-70
2021/01/08 09:32:44;;;;;;;8.10;5.03;;;-0.20;97.50;;;;;;5116310;28;20030;-69
2021/01/08 09:35:11;;;;;;;9.02;5.00;;;-0.20;97.60;;;;;;5116429;28;20027;-69
2021/01/08 09:37:42;;;;;;;8.00;5.30;;;-0.20;97.50;;;;;;5129588;27;20083;-67
2021/01/08 09:40:13;;;;;;;8.52;5.60;;;-0.10;97.60;;;;;;5119548;27;20370;-69
2021/01/08 09:42:39;;;;;;;7.13;4.82;;;-0.10;97.20;;;;;;5117702;27;20098;-69
2021/01/08 09:45:25;;;;;;;9.40;5.88;;;-0.20;97.40;;;;;;5129474;27;20024;-70
2021/01/08 09:47:53;;;;;;;8.23;5.28;;;-0.10;97.50;;;;;;5130937;27;21905;-68
2021/01/08 09:50:27;;;;;;;7.40;4.95;;;0.00;97.40;;;;;;5126488;27;20054;-70
2021/01/08 09:52:57;;;;;;;9.30;5.90;;;0.20;96.80;;;;;;5128368;28;20054;-71
2021/01/08 09:55:29;;;;;;;7.15;4.65;;;0.40;96.50;;;;;;5123004;28;20043;-71
2021/01/08 09:58:01;;;;;;;8.43;5.78;;;0.60;95.80;;;;;;5124890;28;20038;-68
2021/01/08 10:00:37;;;;;;;8.52;5.22;;;0.60;95.50;;;;;;5118590;28;20023;-69
2021/01/08 10:03:05;;;;;;;7.18;5.18;;;0.40;95.90;;;;;;5115199;28;20028;-68
2021/01/08 10:05:35;;;;;;;8.25;5.43;;;0.20;96.60;;;;;;5116966;27;20346;-67
2021/01/08 10:08:03;;;;;;;11.23;5.80;;;0.30;96.40;;;;;;5119041;27;20023;-70
2021/01/08 10:10:29;;;;;;;9.35;6.15;;;0.40;95.90;;;;;;5117406;27;20023;-69
2021/01/08 10:12:59;;;;;;;9.30;5.90;;;0.60;95.90;;;;;;5125455;27;20028;-67
2021/01/08 10:15:40;;;;;;;8.43;5.68;;;0.60;95.30;;;;;;5125509;27;20415;-67
2021/01/08 10:18:17;;;;;;;9.65;5.70;;;0.50;95.60;;;;;;5099998;28;20040;-70
2021/01/08 10:20:51;;;;;;;9.70;5.88;;;0.60;95.50;;;;;;5123779;27;20111;-68
2021/01/08 10:23:22;;;;;;;11.27;6.03;;;0.50;95.50;;;;;;5119415;27;20032;-70
2021/01/08 10:25:49;;;;;;;11.20;6.28;;;0.60;95.80;;;;;;5104412;27;20106;-69
2021/01/08 10:28:23;;;;;;;10.88;5.60;;;1.00;95.40;;;;;;5123567;27;20055;-70
2021/01/08 10:30:50;;;;;;;;;;;1.30;94.30;;;;;;5122815;27;20465;-70
2021/01/08 10:33:16;;;;;;;7.15;4.90;;;1.20;92.40;;;;;;5128756;27;20208;-68
2021/01/08 10:35:50;;;;;;;8.82;4.95;;;1.00;93.80;;;;;;5124574;27;20019;-68
2021/01/08 10:38:16;;;;;;;8.20;5.53;;;1.00;93.40;;;;;;5104200;28;20309;-68
2021/01/08 10:40:42;;;;;;;8.70;5.25;;;1.10;93.80;;;;;;5117746;27;20061;-68
2021/01/08 10:43:11;;;;;;;12.93;6.18;;;1.10;93.40;;;;;;5119811;27;20357;-70
2021/01/08 10:45:37;;;;;;;10.27;5.68;;;1.20;93.10;;;;;;5122902;27;20023;-70
2021/01/08 10:48:04;;;;;;;10.25;6.60;;;1.20;93.80;;;;;;5126796;27;20072;-70
2021/01/08 10:50:29;;;;;;;11.45;7.00;;;1.30;93.40;;;;;;5119604;27;20061;-70
2021/01/08 10:52:55;;;;;;;8.50;5.60;;;1.40;92.50;;;;;;5127984;27;20339;-70
2021/01/08 10:55:20;;;;;;;10.05;6.32;;;1.10;92.80;;;;;;5127271;27;20019;-69
2021/01/08 10:57:49;;;;;;;12.57;5.45;;;1.00;92.80;;;;;;5131985;27;20336;-70
2021/01/08 11:00:17;;;;;;;10.20;5.40;;;0.90;93.40;;;;;;5137079;27;20023;-69
2021/01/08 11:02:43;;;;;;;10.85;6.00;;;1.00;93.50;;;;;;5105110;27;20414;-69
2021/01/08 11:05:09;;;;;;;9.88;5.63;;;1.10;93.10;;;;;;5119076;27;20046;-69
2021/01/08 11:07:35;;;;;;;8.85;5.55;;;1.10;92.80;;;;;;5116415;27;20011;-70
2021/01/08 11:10:02;;;;;;;7.22;4.65;;;1.10;92.50;;;;;;5117335;27;20031;-70
2021/01/08 11:12:28;;;;;;;8.32;5.40;;;1.20;92.80;;;;;;5101695;27;20035;-70
2021/01/08 11:14:55;;;;;;;12.65;7.82;;;1.50;92.00;;;;;;5097875;27;20019;-69
2021/01/08 11:17:20;;;;;;;10.93;5.38;;;2.20;91.40;;;;;;5116344;27;20328;-69
2021/01/08 11:19:48;;;;;;;8.95;4.70;;;2.60;87.40;;;;;;5120858;27;20031;-67
2021/01/08 11:22:20;;;;;;;6.68;4.25;;;2.50;88.40;;;;;;5118618;27;20031;-68
2021/01/08 11:24:45;;;;;;;10.20;5.43;;;2.60;88.00;;;;;;5118149;27;20031;-69
2021/01/08 11:27:11;;;;;;;7.32;4.50;;;2.90;87.50;;;;;;5122007;27;20024;-68
2021/01/08 11:29:37;;;;;;;7.20;4.70;;;2.60;87.20;;;;;;5121801;27;20053;-68
2021/01/08 11:32:09;;;;;;;7.45;4.82;;;2.40;86.80;;;;;;5122877;27;20068;-68
2021/01/08 11:34:35;;;;;;;6.47;4.28;;;2.10;88.50;;;;;;5120496;27;20444;-69
2021/01/08 11:37:01;;;;;;;9.20;4.85;;;2.10;89.00;;;;;;5114520;27;20027;-68
2021/01/08 11:39:27;;;;;;;7.75;4.60;;;2.10;88.80;;;;;;5118407;27;20135;-67
2021/01/08 11:41:56;;;;;;;7.10;4.53;;;2.30;88.80;;;;;;5118171;27;20035;-68
2021/01/08 11:44:23;;;;;;;7.50;4.53;;;2.20;87.70;;;;;;5101206;27;20118;-68
2021/01/08 11:46:51;;;;;;;6.90;4.50;;;2.10;88.90;;;;;;5118366;27;20113;-68
2021/01/08 11:49:18;;;;;;;9.88;6.13;;;1.90;88.90;;;;;;5117506;27;20039;-70
2021/01/08 11:51:44;;;;;;;7.72;4.90;;;1.90;90.20;;;;;;5124841;27;20097;-69
2021/01/08 11:54:10;;;;;;;9.95;5.75;;;2.00;89.30;;;;;;5126280;27;20130;-68
2021/01/08 11:56:36;;;;;;;9.00;5.40;;;1.70;89.30;;;;;;5127746;27;20043;-68
2021/01/08 11:59:02;;;;;;;8.23;5.20;;;1.60;90.20;;;;;;5122596;27;20067;-69
2021/01/08 12:01:28;;;;;;;8.27;5.00;;;1.80;90.00;;;;;;5119800;27;20055;-69
2021/01/08 12:03:55;;;;;;;8.70;5.45;;;1.70;89.70;;;;;;5123471;27;20047;-68
2021/01/08 12:06:38;;;;;;;8.30;4.50;;;1.60;89.70;;;;;;5100948;28;20328;-69
2021/01/08 12:09:09;;;;;;;9.38;5.72;;;1.40;89.70;;;;;;5119848;27;20032;-69
2021/01/08 12:11:34;;;;;;;9.48;5.45;;;1.10;90.70;;;;;;5118954;27;20039;-69
2021/01/08 12:14:02;;;;;;;7.88;4.57;;;1.20;90.80;;;;;;5106044;27;20304;-69
2021/01/08 12:16:29;;;;;;;7.35;4.22;;;1.10;90.30;;;;;;5124853;27;20076;-70
2021/01/08 12:18:55;;;;;;;8.48;5.28;;;1.00;90.70;;;;;;5119511;27;20021;-68
2021/01/08 12:21:24;;;;;;;8.77;5.22;;;1.10;90.90;;;;;;5119717;27;20319;-69
2021/01/08 12:23:53;;;;;;;7.72;4.78;;;1.20;90.40;;;;;;5121560;27;20027;-69
2021/01/08 12:26:19;;;;;;;6.78;4.32;;;1.10;90.20;;;;;;5118860;27;20038;-69
2021/01/08 12:28:47;;;;;;;8.30;5.07;;;1.10;90.90;;;;;;5122679;27;20035;-68
2021/01/08 12:31:13;;;;;;;7.78;4.78;;;1.40;91.00;;;;;;5101265;27;20077;-70
2021/01/08 12:33:41;;;;;;;7.47;4.15;;;1.70;88.90;;;;;;5120190;27;20443;-70
2021/01/08 12:36:09;;;;;;;10.65;5.55;;;1.70;88.60;;;;;;5123722;27;21700;-69
2021/01/08 12:38:35;;;;;;;9.48;5.13;;;1.90;88.20;;;;;;5098169;27;20047;-68
2021/01/08 12:41:01;;;;;;;8.15;4.88;;;2.00;87.90;;;;;;5100644;27;20436;-68
2021/01/08 12:43:26;;;;;;;7.30;4.32;;;2.30;87.30;;;;;;5120600;27;20031;-70
2021/01/08 12:45:52;;;;;;;11.38;6.35;;;2.20;86.00;;;;;;5125019;27;20130;-70
2021/01/08 12:48:24;;;;;;;7.28;4.40;;;1.70;87.10;;;;;;5118434;27;20063;-70
2021/01/08 12:50:49;;;;;;;7.22;4.25;;;1.30;88.70;;;;;;5124955;27;20027;-70
2021/01/08 12:53:15;;;;;;;8.07;5.20;;;1.40;89.20;;;;;;5102575;27;20047;-69